sensor_id;sensor_type;location;lat;lon;timestamp;P1;durP1;ratioP1;P2;durP2;ratioP2
24761;SDS011;12865;51.934;10.330;2022-08-07T00:00:14;1.63;;;1.10;;
24761;SDS011;12865;51.934;10.330;2022-08-07T00:03:00;1.08;;;0.95;;
24761;SDS011;12865;51.934;10.330;2022-08-07T00:05:46;2.40;;;1.02;;
24761;SDS011;12865;51.934;10.330;2022-08-07T00:08:31;1.48;;;1.00;;
24761;SDS011;12865;51.934;10.330;2022-08-07T00:11:17;1.15;;;1.05;;
24761;SDS011;12865;51.934;10.330;2022-08-07T00:14:03;1.40;;;1.20;;
24761;SDS011;12865;51.934;10.330;2022-08-07T00:16:49;1.30;;;1.20;;
24761;SDS011;12865;51.934;10.330;2022-08-07T00:19:34;2.38;;;1.02;;
24761;SDS011;12865;51.934;10.330;2022-08-07T00:22:20;1.30;;;1.02;;
24761;SDS011;12865;51.934;10.330;2022-08-07T00:25:06;0.80;;;0.80;;
24761;SDS011;12865;51.934;10.330;2022-08-07T00:27:53;2.35;;;1.30;;
24761;SDS011;12865;51.934;10.330;2022-08-07T00:30:38;1.50;;;1.13;;
24761;SDS011;12865;51.934;10.330;2022-08-07T00:33:24;1.98;;;1.70;;
24761;SDS011;12865;51.934;10.330;2022-08-07T00:36:13;1.83;;;1.20;;
24761;SDS011;12865;51.934;10.330;2022-08-07T00:38:59;1.38;;;1.27;;
24761;SDS011;12865;51.934;10.330;2022-08-07T00:41:51;1.02;;;1.00;;
24761;SDS011;12865;51.934;10.330;2022-08-07T00:44:39;2.00;;;1.25;;
24761;SDS011;12865;51.934;10.330;2022-08-07T00:47:24;2.42;;;2.00;;
24761;SDS011;12865;51.934;10.330;2022-08-07T00:50:10;2.05;;;1.05;;
24761;SDS011;12865;51.934;10.330;2022-08-07T00:52:56;1.83;;;1.20;;
24761;SDS011;12865;51.934;10.330;2022-08-07T00:55:41;2.58;;;0.90;;
24761;SDS011;12865;51.934;10.330;2022-08-07T00:58:27;3.45;;;1.45;;
24761;SDS011;12865;51.934;10.330;2022-08-07T01:01:13;2.85;;;1.02;;
24761;SDS011;12865;51.934;10.330;2022-08-07T01:04:03;1.20;;;1.02;;
24761;SDS011;12865;51.934;10.330;2022-08-07T01:06:50;1.23;;;1.15;;
24761;SDS011;12865;51.934;10.330;2022-08-07T01:09:36;1.50;;;1.08;;
24761;SDS011;12865;51.934;10.330;2022-08-07T01:12:22;1.85;;;0.90;;
24761;SDS011;12865;51.934;10.330;2022-08-07T01:15:08;0.88;;;0.80;;
24761;SDS011;12865;51.934;10.330;2022-08-07T01:17:54;1.25;;;1.08;;
24761;SDS011;12865;51.934;10.330;2022-08-07T01:20:44;2.10;;;1.05;;
24761;SDS011;12865;51.934;10.330;2022-08-07T01:23:34;6.10;;;1.45;;
24761;SDS011;12865;51.934;10.330;2022-08-07T01:26:21;1.23;;;1.05;;
24761;SDS011;12865;51.934;10.330;2022-08-07T01:29:07;1.15;;;1.10;;
24761;SDS011;12865;51.934;10.330;2022-08-07T01:31:53;1.55;;;1.00;;
24761;SDS011;12865;51.934;10.330;2022-08-07T01:34:40;1.85;;;1.10;;
24761;SDS011;12865;51.934;10.330;2022-08-07T01:37:29;4.07;;;1.20;;
24761;SDS011;12865;51.934;10.330;2022-08-07T01:40:15;1.27;;;1.00;;
24761;SDS011;12865;51.934;10.330;2022-08-07T01:43:05;1.45;;;1.20;;
24761;SDS011;12865;51.934;10.330;2022-08-07T01:45:51;1.17;;;1.00;;
24761;SDS011;12865;51.934;10.330;2022-08-07T01:48:39;1.60;;;1.15;;
24761;SDS011;12865;51.934;10.330;2022-08-07T01:51:26;1.40;;;1.30;;
24761;SDS011;12865;51.934;10.330;2022-08-07T01:54:13;2.45;;;1.10;;
24761;SDS011;12865;51.934;10.330;2022-08-07T01:59:53;1.48;;;1.10;;
24761;SDS011;12865;51.934;10.330;2022-08-07T02:02:54;1.17;;;1.00;;
24761;SDS011;12865;51.934;10.330;2022-08-07T02:05:45;1.08;;;1.08;;
24761;SDS011;12865;51.934;10.330;2022-08-07T02:08:34;2.60;;;0.90;;
24761;SDS011;12865;51.934;10.330;2022-08-07T02:11:25;2.00;;;0.93;;
24761;SDS011;12865;51.934;10.330;2022-08-07T02:14:11;3.15;;;1.10;;
24761;SDS011;12865;51.934;10.330;2022-08-07T02:16:58;1.92;;;1.15;;
24761;SDS011;12865;51.934;10.330;2022-08-07T02:19:45;2.13;;;0.90;;
24761;SDS011;12865;51.934;10.330;2022-08-07T02:22:34;1.70;;;1.17;;
24761;SDS011;12865;51.934;10.330;2022-08-07T02:25:21;0.98;;;0.95;;
24761;SDS011;12865;51.934;10.330;2022-08-07T02:28:07;1.25;;;1.05;;
24761;SDS011;12865;51.934;10.330;2022-08-07T02:30:55;2.75;;;1.08;;
24761;SDS011;12865;51.934;10.330;2022-08-07T02:33:43;4.07;;;1.00;;
24761;SDS011;12865;51.934;10.330;2022-08-07T02:36:30;2.30;;;1.10;;
24761;SDS011;12865;51.934;10.330;2022-08-07T02:39:17;1.27;;;0.90;;
24761;SDS011;12865;51.934;10.330;2022-08-07T02:42:05;1.90;;;1.00;;
24761;SDS011;12865;51.934;10.330;2022-08-07T02:44:51;1.77;;;1.08;;
24761;SDS011;12865;51.934;10.330;2022-08-07T02:47:39;1.10;;;1.00;;
24761;SDS011;12865;51.934;10.330;2022-08-07T02:50:25;2.40;;;1.00;;
24761;SDS011;12865;51.934;10.330;2022-08-07T02:53:11;2.05;;;0.93;;
24761;SDS011;12865;51.934;10.330;2022-08-07T02:56:02;1.15;;;1.05;;
24761;SDS011;12865;51.934;10.330;2022-08-07T02:58:50;1.10;;;1.00;;
24761;SDS011;12865;51.934;10.330;2022-08-07T03:01:38;2.35;;;0.90;;
24761;SDS011;12865;51.934;10.330;2022-08-07T03:04:25;1.40;;;1.02;;
24761;SDS011;12865;51.934;10.330;2022-08-07T03:07:12;1.30;;;1.13;;
24761;SDS011;12865;51.934;10.330;2022-08-07T03:10:00;2.92;;;0.95;;
24761;SDS011;12865;51.934;10.330;2022-08-07T03:12:46;1.58;;;1.00;;
24761;SDS011;12865;51.934;10.330;2022-08-07T03:15:34;2.58;;;1.05;;
24761;SDS011;12865;51.934;10.330;2022-08-07T03:18:20;1.10;;;1.10;;
24761;SDS011;12865;51.934;10.330;2022-08-07T03:21:06;3.35;;;1.13;;
24761;SDS011;12865;51.934;10.330;2022-08-07T03:23:53;1.38;;;1.10;;
24761;SDS011;12865;51.934;10.330;2022-08-07T03:26:40;1.33;;;0.98;;
24761;SDS011;12865;51.934;10.330;2022-08-07T03:29:28;5.00;;;1.27;;
24761;SDS011;12865;51.934;10.330;2022-08-07T03:32:20;1.20;;;1.20;;
24761;SDS011;12865;51.934;10.330;2022-08-07T03:35:11;2.80;;;1.63;;
24761;SDS011;12865;51.934;10.330;2022-08-07T03:38:00;1.20;;;1.15;;
24761;SDS011;12865;51.934;10.330;2022-08-07T03:40:49;1.08;;;1.00;;
24761;SDS011;12865;51.934;10.330;2022-08-07T03:43:36;1.10;;;1.05;;
24761;SDS011;12865;51.934;10.330;2022-08-07T03:46:22;1.30;;;1.00;;
24761;SDS011;12865;51.934;10.330;2022-08-07T03:49:09;3.60;;;1.30;;
24761;SDS011;12865;51.934;10.330;2022-08-07T03:51:56;1.35;;;1.25;;
24761;SDS011;12865;51.934;10.330;2022-08-07T03:54:43;1.42;;;1.33;;
24761;SDS011;12865;51.934;10.330;2022-08-07T03:57:30;1.10;;;1.00;;
24761;SDS011;12865;51.934;10.330;2022-08-07T04:00:17;2.03;;;1.05;;
24761;SDS011;12865;51.934;10.330;2022-08-07T04:03:03;1.38;;;1.00;;
24761;SDS011;12865;51.934;10.330;2022-08-07T04:05:49;1.17;;;1.08;;
24761;SDS011;12865;51.934;10.330;2022-08-07T04:08:35;1.90;;;1.10;;
24761;SDS011;12865;51.934;10.330;2022-08-07T04:11:23;1.10;;;1.10;;
24761;SDS011;12865;51.934;10.330;2022-08-07T04:14:09;0.90;;;0.90;;
24761;SDS011;12865;51.934;10.330;2022-08-07T04:16:55;3.30;;;1.25;;
24761;SDS011;12865;51.934;10.330;2022-08-07T04:19:41;2.97;;;1.20;;
24761;SDS011;12865;51.934;10.330;2022-08-07T04:22:27;3.15;;;1.30;;
24761;SDS011;12865;51.934;10.330;2022-08-07T04:25:13;1.73;;;1.10;;
24761;SDS011;12865;51.934;10.330;2022-08-07T04:27:59;1.38;;;1.20;;
24761;SDS011;12865;51.934;10.330;2022-08-07T04:30:48;1.73;;;1.00;;
24761;SDS011;12865;51.934;10.330;2022-08-07T04:33:34;1.63;;;1.30;;
24761;SDS011;12865;51.934;10.330;2022-08-07T04:36:22;4.68;;;1.50;;
24761;SDS011;12865;51.934;10.330;2022-08-07T04:39:08;1.75;;;1.15;;
24761;SDS011;12865;51.934;10.330;2022-08-07T04:41:53;2.05;;;1.00;;
24761;SDS011;12865;51.934;10.330;2022-08-07T04:44:39;1.75;;;1.20;;
24761;SDS011;12865;51.934;10.330;2022-08-07T04:47:32;0.90;;;0.90;;
24761;SDS011;12865;51.934;10.330;2022-08-07T04:53:15;1.13;;;1.13;;
24761;SDS011;12865;51.934;10.330;2022-08-07T04:56:19;1.55;;;1.17;;
24761;SDS011;12865;51.934;10.330;2022-08-07T05:02:42;1.70;;;1.27;;
24761;SDS011;12865;51.934;10.330;2022-08-07T05:08:19;1.20;;;1.20;;
24761;SDS011;12865;51.934;10.330;2022-08-07T05:11:15;0.98;;;0.98;;
24761;SDS011;12865;51.934;10.330;2022-08-07T05:14:31;2.40;;;1.08;;
24761;SDS011;12865;51.934;10.330;2022-08-07T05:17:21;1.20;;;1.10;;
24761;SDS011;12865;51.934;10.330;2022-08-07T05:20:12;1.35;;;1.30;;
24761;SDS011;12865;51.934;10.330;2022-08-07T05:23:04;1.10;;;1.05;;
24761;SDS011;12865;51.934;10.330;2022-08-07T05:25:54;1.45;;;0.80;;
24761;SDS011;12865;51.934;10.330;2022-08-07T05:28:41;1.58;;;1.20;;
24761;SDS011;12865;51.934;10.330;2022-08-07T05:31:32;3.00;;;1.30;;
24761;SDS011;12865;51.934;10.330;2022-08-07T05:34:22;1.10;;;0.98;;
24761;SDS011;12865;51.934;10.330;2022-08-07T05:37:09;1.30;;;1.10;;
24761;SDS011;12865;51.934;10.330;2022-08-07T05:39:57;2.25;;;1.30;;
24761;SDS011;12865;51.934;10.330;2022-08-07T05:42:45;1.98;;;1.85;;
24761;SDS011;12865;51.934;10.330;2022-08-07T05:45:31;2.95;;;1.30;;
24761;SDS011;12865;51.934;10.330;2022-08-07T05:48:18;2.33;;;1.00;;
24761;SDS011;12865;51.934;10.330;2022-08-07T05:51:05;1.48;;;1.13;;
24761;SDS011;12865;51.934;10.330;2022-08-07T05:53:51;1.30;;;1.20;;
24761;SDS011;12865;51.934;10.330;2022-08-07T05:56:40;1.33;;;1.10;;
24761;SDS011;12865;51.934;10.330;2022-08-07T05:59:27;2.13;;;1.10;;
24761;SDS011;12865;51.934;10.330;2022-08-07T06:02:15;1.60;;;1.20;;
24761;SDS011;12865;51.934;10.330;2022-08-07T06:05:06;1.75;;;1.00;;
24761;SDS011;12865;51.934;10.330;2022-08-07T06:07:54;4.18;;;1.08;;
24761;SDS011;12865;51.934;10.330;2022-08-07T06:10:45;1.85;;;1.17;;
24761;SDS011;12865;51.934;10.330;2022-08-07T06:13:31;1.92;;;1.00;;
24761;SDS011;12865;51.934;10.330;2022-08-07T06:16:17;2.85;;;1.25;;
24761;SDS011;12865;51.934;10.330;2022-08-07T06:19:06;3.88;;;1.23;;
24761;SDS011;12865;51.934;10.330;2022-08-07T06:21:53;1.92;;;0.85;;
24761;SDS011;12865;51.934;10.330;2022-08-07T06:24:40;5.57;;;1.10;;
24761;SDS011;12865;51.934;10.330;2022-08-07T06:27:26;2.83;;;1.13;;
24761;SDS011;12865;51.934;10.330;2022-08-07T06:30:12;1.63;;;1.00;;
24761;SDS011;12865;51.934;10.330;2022-08-07T06:32:59;2.92;;;1.20;;
24761;SDS011;12865;51.934;10.330;2022-08-07T06:35:45;4.78;;;1.20;;
24761;SDS011;12865;51.934;10.330;2022-08-07T06:38:31;3.42;;;1.30;;
24761;SDS011;12865;51.934;10.330;2022-08-07T06:41:17;2.38;;;1.20;;
24761;SDS011;12865;51.934;10.330;2022-08-07T06:44:10;5.68;;;1.15;;
24761;SDS011;12865;51.934;10.330;2022-08-07T06:46:57;1.30;;;1.23;;
24761;SDS011;12865;51.934;10.330;2022-08-07T06:49:43;1.60;;;1.10;;
24761;SDS011;12865;51.934;10.330;2022-08-07T06:52:30;1.40;;;1.25;;
24761;SDS011;12865;51.934;10.330;2022-08-07T06:55:25;1.45;;;1.35;;
24761;SDS011;12865;51.934;10.330;2022-08-07T06:58:13;2.22;;;1.30;;
24761;SDS011;12865;51.934;10.330;2022-08-07T07:00:59;1.15;;;1.10;;
24761;SDS011;12865;51.934;10.330;2022-08-07T07:03:47;2.05;;;1.23;;
24761;SDS011;12865;51.934;10.330;2022-08-07T07:06:33;1.00;;;0.90;;
24761;SDS011;12865;51.934;10.330;2022-08-07T07:09:23;2.78;;;1.20;;
24761;SDS011;12865;51.934;10.330;2022-08-07T07:15:12;1.05;;;0.90;;
24761;SDS011;12865;51.934;10.330;2022-08-07T07:18:09;1.17;;;1.00;;
24761;SDS011;12865;51.934;10.330;2022-08-07T07:20:58;3.33;;;0.95;;
24761;SDS011;12865;51.934;10.330;2022-08-07T07:23:47;1.80;;;1.00;;
24761;SDS011;12865;51.934;10.330;2022-08-07T07:26:33;1.73;;;0.90;;
24761;SDS011;12865;51.934;10.330;2022-08-07T07:29:22;2.45;;;1.00;;
24761;SDS011;12865;51.934;10.330;2022-08-07T07:32:13;0.90;;;0.90;;
24761;SDS011;12865;51.934;10.330;2022-08-07T07:35:01;2.30;;;1.10;;
24761;SDS011;12865;51.934;10.330;2022-08-07T07:37:47;1.90;;;1.30;;
24761;SDS011;12865;51.934;10.330;2022-08-07T07:40:34;2.40;;;1.23;;
24761;SDS011;12865;51.934;10.330;2022-08-07T07:43:23;1.30;;;0.98;;
24761;SDS011;12865;51.934;10.330;2022-08-07T07:46:12;2.05;;;1.00;;
24761;SDS011;12865;51.934;10.330;2022-08-07T07:48:58;1.17;;;0.80;;
24761;SDS011;12865;51.934;10.330;2022-08-07T07:51:46;1.00;;;1.00;;
24761;SDS011;12865;51.934;10.330;2022-08-07T07:54:33;2.90;;;1.15;;
24761;SDS011;12865;51.934;10.330;2022-08-07T07:57:20;1.25;;;1.05;;
24761;SDS011;12865;51.934;10.330;2022-08-07T08:00:09;1.77;;;1.05;;
24761;SDS011;12865;51.934;10.330;2022-08-07T08:02:58;2.47;;;0.90;;
24761;SDS011;12865;51.934;10.330;2022-08-07T08:05:49;1.20;;;0.80;;
24761;SDS011;12865;51.934;10.330;2022-08-07T08:08:35;1.20;;;0.80;;
24761;SDS011;12865;51.934;10.330;2022-08-07T08:11:21;0.82;;;0.80;;
24761;SDS011;12865;51.934;10.330;2022-08-07T08:14:07;2.03;;;1.08;;
24761;SDS011;12865;51.934;10.330;2022-08-07T08:16:53;0.88;;;0.88;;
24761;SDS011;12865;51.934;10.330;2022-08-07T08:19:42;1.88;;;1.15;;
24761;SDS011;12865;51.934;10.330;2022-08-07T08:22:29;0.77;;;0.77;;
24761;SDS011;12865;51.934;10.330;2022-08-07T08:25:33;1.80;;;0.90;;
24761;SDS011;12865;51.934;10.330;2022-08-07T08:28:41;2.20;;;0.80;;
24761;SDS011;12865;51.934;10.330;2022-08-07T08:31:29;2.90;;;0.90;;
24761;SDS011;12865;51.934;10.330;2022-08-07T08:37:06;3.10;;;1.00;;
24761;SDS011;12865;51.934;10.330;2022-08-07T08:39:54;1.17;;;0.80;;
24761;SDS011;12865;51.934;10.330;2022-08-07T08:46:27;1.23;;;0.80;;
24761;SDS011;12865;51.934;10.330;2022-08-07T09:01:02;2.03;;;0.60;;
24761;SDS011;12865;51.934;10.330;2022-08-07T09:04:04;0.82;;;0.50;;
24761;SDS011;12865;51.934;10.330;2022-08-07T09:07:30;0.73;;;0.45;;
24761;SDS011;12865;51.934;10.330;2022-08-07T09:10:35;2.95;;;0.80;;
24761;SDS011;12865;51.934;10.330;2022-08-07T09:13:57;0.52;;;0.52;;
24761;SDS011;12865;51.934;10.330;2022-08-07T09:19:54;0.50;;;0.50;;
24761;SDS011;12865;51.934;10.330;2022-08-07T09:22:56;0.77;;;0.70;;
24761;SDS011;12865;51.934;10.330;2022-08-07T09:29:19;0.98;;;0.60;;
24761;SDS011;12865;51.934;10.330;2022-08-07T09:32:57;1.55;;;0.73;;
24761;SDS011;12865;51.934;10.330;2022-08-07T09:35:53;1.10;;;0.60;;
24761;SDS011;12865;51.934;10.330;2022-08-07T09:41:35;2.67;;;0.70;;
24761;SDS011;12865;51.934;10.330;2022-08-07T09:53:34;0.52;;;0.50;;
24761;SDS011;12865;51.934;10.330;2022-08-07T10:09:33;0.95;;;0.70;;
24761;SDS011;12865;51.934;10.330;2022-08-07T10:12:47;1.83;;;0.95;;
24761;SDS011;12865;51.934;10.330;2022-08-07T10:16:00;0.95;;;0.70;;
24761;SDS011;12865;51.934;10.330;2022-08-07T10:34:41;0.93;;;0.68;;
24761;SDS011;12865;51.934;10.330;2022-08-07T10:40:51;2.55;;;0.70;;
24761;SDS011;12865;51.934;10.330;2022-08-07T10:44:02;3.78;;;1.02;;
24761;SDS011;12865;51.934;10.330;2022-08-07T10:46:59;1.38;;;0.60;;
24761;SDS011;12865;51.934;10.330;2022-08-07T10:50:12;0.60;;;0.60;;
24761;SDS011;12865;51.934;10.330;2022-08-07T11:03:09;0.50;;;0.50;;
24761;SDS011;12865;51.934;10.330;2022-08-07T11:08:48;0.75;;;0.45;;
24761;SDS011;12865;51.934;10.330;2022-08-07T11:11:42;1.80;;;0.63;;
24761;SDS011;12865;51.934;10.330;2022-08-07T11:14:38;1.95;;;0.85;;
24761;SDS011;12865;51.934;10.330;2022-08-07T11:17:30;3.22;;;0.60;;
24761;SDS011;12865;51.934;10.330;2022-08-07T11:20:26;0.80;;;0.80;;
24761;SDS011;12865;51.934;10.330;2022-08-07T11:23:44;1.35;;;0.55;;
24761;SDS011;12865;51.934;10.330;2022-08-07T11:26:44;1.65;;;0.70;;
24761;SDS011;12865;51.934;10.330;2022-08-07T11:29:43;0.43;;;0.43;;
24761;SDS011;12865;51.934;10.330;2022-08-07T11:32:37;1.85;;;0.70;;
24761;SDS011;12865;51.934;10.330;2022-08-07T11:35:33;1.25;;;0.60;;
24761;SDS011;12865;51.934;10.330;2022-08-07T11:38:48;1.02;;;0.60;;
24761;SDS011;12865;51.934;10.330;2022-08-07T11:41:49;1.38;;;0.60;;
24761;SDS011;12865;51.934;10.330;2022-08-07T11:48:17;1.02;;;0.70;;
24761;SDS011;12865;51.934;10.330;2022-08-07T12:01:30;1.10;;;0.50;;
24761;SDS011;12865;51.934;10.330;2022-08-07T12:04:55;0.50;;;0.50;;
24761;SDS011;12865;51.934;10.330;2022-08-07T12:10:57;1.33;;;0.50;;
24761;SDS011;12865;51.934;10.330;2022-08-07T12:13:52;1.67;;;0.77;;
24761;SDS011;12865;51.934;10.330;2022-08-07T12:16:47;0.70;;;0.40;;
24761;SDS011;12865;51.934;10.330;2022-08-07T12:22:50;1.17;;;0.82;;
24761;SDS011;12865;51.934;10.330;2022-08-07T12:25:53;1.20;;;0.77;;
24761;SDS011;12865;51.934;10.330;2022-08-07T12:32:00;0.68;;;0.52;;
24761;SDS011;12865;51.934;10.330;2022-08-07T12:34:53;1.05;;;0.55;;
24761;SDS011;12865;51.934;10.330;2022-08-07T12:37:42;0.73;;;0.60;;
24761;SDS011;12865;51.934;10.330;2022-08-07T12:40:32;0.50;;;0.50;;
24761;SDS011;12865;51.934;10.330;2022-08-07T12:43:26;0.85;;;0.47;;
24761;SDS011;12865;51.934;10.330;2022-08-07T12:52:03;0.70;;;0.60;;
24761;SDS011;12865;51.934;10.330;2022-08-07T12:54:58;0.50;;;0.50;;
24761;SDS011;12865;51.934;10.330;2022-08-07T12:57:54;0.50;;;0.40;;
24761;SDS011;12865;51.934;10.330;2022-08-07T13:00:51;0.60;;;0.60;;
24761;SDS011;12865;51.934;10.330;2022-08-07T13:10:12;0.75;;;0.65;;
24761;SDS011;12865;51.934;10.330;2022-08-07T13:15:48;1.27;;;0.52;;
24761;SDS011;12865;51.934;10.330;2022-08-07T13:19:10;0.50;;;0.45;;
24761;SDS011;12865;51.934;10.330;2022-08-07T13:22:13;1.13;;;0.50;;
24761;SDS011;12865;51.934;10.330;2022-08-07T13:25:10;0.50;;;0.35;;
24761;SDS011;12865;51.934;10.330;2022-08-07T13:28:03;0.90;;;0.50;;
24761;SDS011;12865;51.934;10.330;2022-08-07T13:30:54;1.58;;;0.50;;
24761;SDS011;12865;51.934;10.330;2022-08-07T13:36:53;0.73;;;0.50;;
24761;SDS011;12865;51.934;10.330;2022-08-07T13:43:05;0.50;;;0.50;;
24761;SDS011;12865;51.934;10.330;2022-08-07T13:45:58;1.15;;;0.70;;
24761;SDS011;12865;51.934;10.330;2022-08-07T13:48:47;1.35;;;0.50;;
24761;SDS011;12865;51.934;10.330;2022-08-07T13:51:36;1.00;;;0.55;;
24761;SDS011;12865;51.934;10.330;2022-08-07T13:54:28;1.10;;;0.52;;
24761;SDS011;12865;51.934;10.330;2022-08-07T13:57:15;1.45;;;0.82;;
24761;SDS011;12865;51.934;10.330;2022-08-07T14:00:02;1.30;;;0.47;;
24761;SDS011;12865;51.934;10.330;2022-08-07T14:02:50;1.45;;;0.80;;
24761;SDS011;12865;51.934;10.330;2022-08-07T14:05:38;0.47;;;0.40;;
24761;SDS011;12865;51.934;10.330;2022-08-07T14:08:24;2.00;;;0.70;;
24761;SDS011;12865;51.934;10.330;2022-08-07T14:11:13;2.22;;;0.70;;
24761;SDS011;12865;51.934;10.330;2022-08-07T14:14:05;1.75;;;0.85;;
24761;SDS011;12865;51.934;10.330;2022-08-07T14:16:54;1.25;;;0.55;;
24761;SDS011;12865;51.934;10.330;2022-08-07T14:19:48;0.45;;;0.40;;
24761;SDS011;12865;51.934;10.330;2022-08-07T14:22:37;1.00;;;0.60;;
24761;SDS011;12865;51.934;10.330;2022-08-07T14:25:28;0.98;;;0.63;;
24761;SDS011;12865;51.934;10.330;2022-08-07T14:28:16;0.75;;;0.43;;
24761;SDS011;12865;51.934;10.330;2022-08-07T14:31:03;0.88;;;0.50;;
24761;SDS011;12865;51.934;10.330;2022-08-07T14:33:50;0.90;;;0.60;;
24761;SDS011;12865;51.934;10.330;2022-08-07T14:36:38;2.22;;;0.70;;
24761;SDS011;12865;51.934;10.330;2022-08-07T14:39:25;1.90;;;0.73;;
24761;SDS011;12865;51.934;10.330;2022-08-07T14:42:13;0.63;;;0.50;;
24761;SDS011;12865;51.934;10.330;2022-08-07T14:45:06;1.90;;;0.60;;
24761;SDS011;12865;51.934;10.330;2022-08-07T14:47:56;0.80;;;0.60;;
24761;SDS011;12865;51.934;10.330;2022-08-07T14:50:46;0.63;;;0.60;;
24761;SDS011;12865;51.934;10.330;2022-08-07T14:53:41;0.63;;;0.60;;
24761;SDS011;12865;51.934;10.330;2022-08-07T14:56:29;1.08;;;0.60;;
24761;SDS011;12865;51.934;10.330;2022-08-07T14:59:19;1.00;;;0.60;;
24761;SDS011;12865;51.934;10.330;2022-08-07T15:02:11;1.90;;;0.55;;
24761;SDS011;12865;51.934;10.330;2022-08-07T15:04:59;1.95;;;0.70;;
24761;SDS011;12865;51.934;10.330;2022-08-07T15:07:46;0.50;;;0.50;;
24761;SDS011;12865;51.934;10.330;2022-08-07T15:10:32;1.25;;;0.60;;
24761;SDS011;12865;51.934;10.330;2022-08-07T15:13:21;1.55;;;0.60;;
24761;SDS011;12865;51.934;10.330;2022-08-07T15:16:09;1.20;;;0.50;;
24761;SDS011;12865;51.934;10.330;2022-08-07T15:18:56;0.65;;;0.50;;
24761;SDS011;12865;51.934;10.330;2022-08-07T15:21:46;0.63;;;0.45;;
24761;SDS011;12865;51.934;10.330;2022-08-07T15:24:37;1.95;;;0.65;;
24761;SDS011;12865;51.934;10.330;2022-08-07T15:27:25;0.85;;;0.57;;
24761;SDS011;12865;51.934;10.330;2022-08-07T15:30:14;1.60;;;0.50;;
24761;SDS011;12865;51.934;10.330;2022-08-07T15:33:00;0.50;;;0.50;;
24761;SDS011;12865;51.934;10.330;2022-08-07T15:35:50;1.35;;;0.70;;
24761;SDS011;12865;51.934;10.330;2022-08-07T15:38:37;2.75;;;0.60;;
24761;SDS011;12865;51.934;10.330;2022-08-07T15:41:25;1.00;;;0.60;;
24761;SDS011;12865;51.934;10.330;2022-08-07T15:44:16;0.93;;;0.60;;
24761;SDS011;12865;51.934;10.330;2022-08-07T15:47:05;0.60;;;0.60;;
24761;SDS011;12865;51.934;10.330;2022-08-07T15:49:53;0.70;;;0.70;;
24761;SDS011;12865;51.934;10.330;2022-08-07T15:52:41;0.88;;;0.60;;
24761;SDS011;12865;51.934;10.330;2022-08-07T15:55:29;1.63;;;0.70;;
24761;SDS011;12865;51.934;10.330;2022-08-07T15:58:17;0.50;;;0.50;;
24761;SDS011;12865;51.934;10.330;2022-08-07T16:01:11;0.45;;;0.45;;
24761;SDS011;12865;51.934;10.330;2022-08-07T16:04:02;0.70;;;0.50;;
24761;SDS011;12865;51.934;10.330;2022-08-07T16:06:51;0.80;;;0.80;;
24761;SDS011;12865;51.934;10.330;2022-08-07T16:09:49;1.60;;;0.80;;
24761;SDS011;12865;51.934;10.330;2022-08-07T16:12:44;1.85;;;0.57;;
24761;SDS011;12865;51.934;10.330;2022-08-07T16:15:44;1.70;;;0.70;;
24761;SDS011;12865;51.934;10.330;2022-08-07T16:18:43;1.20;;;0.50;;
24761;SDS011;12865;51.934;10.330;2022-08-07T16:21:45;1.02;;;0.60;;
24761;SDS011;12865;51.934;10.330;2022-08-07T16:24:49;0.98;;;0.70;;
24761;SDS011;12865;51.934;10.330;2022-08-07T16:27:45;1.65;;;0.80;;
24761;SDS011;12865;51.934;10.330;2022-08-07T16:30:38;2.67;;;0.90;;
24761;SDS011;12865;51.934;10.330;2022-08-07T16:33:36;1.00;;;0.80;;
24761;SDS011;12865;51.934;10.330;2022-08-07T16:36:37;0.77;;;0.77;;
24761;SDS011;12865;51.934;10.330;2022-08-07T16:43:00;1.23;;;0.73;;
24761;SDS011;12865;51.934;10.330;2022-08-07T16:45:54;0.77;;;0.77;;
24761;SDS011;12865;51.934;10.330;2022-08-07T16:54:47;1.65;;;0.88;;
24761;SDS011;12865;51.934;10.330;2022-08-07T17:00:59;1.17;;;0.70;;
24761;SDS011;12865;51.934;10.330;2022-08-07T17:04:02;2.28;;;1.00;;
24761;SDS011;12865;51.934;10.330;2022-08-07T17:10:06;1.02;;;0.70;;
24761;SDS011;12865;51.934;10.330;2022-08-07T17:21:51;2.78;;;0.88;;
24761;SDS011;12865;51.934;10.330;2022-08-07T17:25:46;4.00;;;1.00;;
24761;SDS011;12865;51.934;10.330;2022-08-07T17:28:12;1.55;;;1.00;;
24761;SDS011;12865;51.934;10.330;2022-08-07T17:31:19;1.00;;;0.88;;
24761;SDS011;12865;51.934;10.330;2022-08-07T17:40:18;2.45;;;1.02;;
24761;SDS011;12865;51.934;10.330;2022-08-07T17:43:11;1.23;;;1.00;;
24761;SDS011;12865;51.934;10.330;2022-08-07T17:46:14;1.55;;;0.90;;
24761;SDS011;12865;51.934;10.330;2022-08-07T17:49:21;1.58;;;1.10;;
24761;SDS011;12865;51.934;10.330;2022-08-07T17:55:13;1.20;;;0.95;;
24761;SDS011;12865;51.934;10.330;2022-08-07T17:58:23;1.48;;;1.17;;
24761;SDS011;12865;51.934;10.330;2022-08-07T18:01:40;1.52;;;0.90;;
24761;SDS011;12865;51.934;10.330;2022-08-07T18:07:39;1.92;;;0.90;;
24761;SDS011;12865;51.934;10.330;2022-08-07T18:13:31;2.05;;;0.80;;
24761;SDS011;12865;51.934;10.330;2022-08-07T18:16:23;1.33;;;1.20;;
24761;SDS011;12865;51.934;10.330;2022-08-07T18:19:39;1.27;;;1.17;;
24761;SDS011;12865;51.934;10.330;2022-08-07T18:22:30;4.45;;;1.20;;
24761;SDS011;12865;51.934;10.330;2022-08-07T18:25:22;2.03;;;0.95;;
24761;SDS011;12865;51.934;10.330;2022-08-07T18:28:25;1.35;;;1.20;;
24761;SDS011;12865;51.934;10.330;2022-08-07T18:34:58;2.42;;;1.23;;
24761;SDS011;12865;51.934;10.330;2022-08-07T18:43:37;2.28;;;1.42;;
24761;SDS011;12865;51.934;10.330;2022-08-07T19:05:09;4.03;;;1.40;;
24761;SDS011;12865;51.934;10.330;2022-08-07T19:11:19;3.58;;;1.50;;
24761;SDS011;12865;51.934;10.330;2022-08-07T19:14:15;2.95;;;1.45;;
24761;SDS011;12865;51.934;10.330;2022-08-07T19:17:13;1.35;;;1.08;;
24761;SDS011;12865;51.934;10.330;2022-08-07T19:23:23;2.92;;;1.30;;
24761;SDS011;12865;51.934;10.330;2022-08-07T19:26:10;3.95;;;1.35;;
24761;SDS011;12865;51.934;10.330;2022-08-07T19:29:02;5.35;;;1.25;;
24761;SDS011;12865;51.934;10.330;2022-08-07T19:31:52;1.17;;;1.10;;
24761;SDS011;12865;51.934;10.330;2022-08-07T19:34:46;4.60;;;1.67;;
24761;SDS011;12865;51.934;10.330;2022-08-07T19:37:45;4.13;;;1.73;;
24761;SDS011;12865;51.934;10.330;2022-08-07T19:40:38;3.22;;;1.60;;
24761;SDS011;12865;51.934;10.330;2022-08-07T19:46:15;1.90;;;1.38;;
24761;SDS011;12865;51.934;10.330;2022-08-07T19:49:07;1.73;;;1.40;;
24761;SDS011;12865;51.934;10.330;2022-08-07T19:51:59;2.13;;;1.35;;
24761;SDS011;12865;51.934;10.330;2022-08-07T19:54:46;1.30;;;1.20;;
24761;SDS011;12865;51.934;10.330;2022-08-07T19:57:39;3.80;;;1.40;;
24761;SDS011;12865;51.934;10.330;2022-08-07T20:00:27;2.00;;;1.00;;
24761;SDS011;12865;51.934;10.330;2022-08-07T20:03:15;2.75;;;0.95;;
24761;SDS011;12865;51.934;10.330;2022-08-07T20:06:03;1.20;;;1.10;;
24761;SDS011;12865;51.934;10.330;2022-08-07T20:08:51;2.30;;;0.80;;
24761;SDS011;12865;51.934;10.330;2022-08-07T20:11:37;1.77;;;1.35;;
24761;SDS011;12865;51.934;10.330;2022-08-07T20:14:33;2.97;;;1.20;;
24761;SDS011;12865;51.934;10.330;2022-08-07T20:17:23;1.52;;;1.10;;
24761;SDS011;12865;51.934;10.330;2022-08-07T20:20:11;4.22;;;1.35;;
24761;SDS011;12865;51.934;10.330;2022-08-07T20:23:04;6.13;;;1.40;;
24761;SDS011;12865;51.934;10.330;2022-08-07T20:25:52;2.03;;;1.20;;
24761;SDS011;12865;51.934;10.330;2022-08-07T20:28:40;1.30;;;1.20;;
24761;SDS011;12865;51.934;10.330;2022-08-07T20:31:28;1.67;;;1.33;;
24761;SDS011;12865;51.934;10.330;2022-08-07T20:34:14;2.42;;;1.13;;